Time;durP1;ratioP1;P1;durP2;ratioP2;P2;SDS_P1;SDS_P2;PMS_P1;PMS_P2;Temp;Humidity;BMP_temperature;BMP_pressure;BME280_temperature;BME280_humidity;BME280_pressure;Samples;Min_cycle;Max_cycle;Signal;HPM_P1;HPM_P2
2021/12/05 00:22:28;;;;;;;0.00;0.00;;;5.60;99.90;;;;;;4991761;28;20026;-69
2021/12/05 00:24:57;;;;;;;0.00;0.00;;;5.60;99.90;;;;;;5007935;28;20026;-69
2021/12/05 00:27:33;;;;;;;0.10;0.10;;;5.60;99.90;;;;;;4992651;28;20027;-69
2021/12/05 00:32:52;;;;;;;0.10;0.10;;;5.50;99.90;;;;;;4997088;28;20490;-69
2021/12/05 00:56:31;;;;;;;0.00;0.00;;;4.90;99.90;;;;;;4996304;28;20034;-69
2021/12/05 01:04:43;;;;;;;;;;;4.80;99.90;;;;;;4996543;28;20034;-69
2021/12/05 01:07:22;;;;;;;0.00;0.00;;;4.70;99.90;;;;;;4994883;28;19913;-69
2021/12/05 01:15:56;;;;;;;0.30;0.30;;;4.50;99.90;;;;;;5013279;28;20042;-69
2021/12/05 01:18:22;;;;;;;0.10;0.10;;;4.50;99.90;;;;;;5013229;28;20116;-69
2021/12/05 01:20:55;;;;;;;3.45;3.25;;;4.50;99.90;;;;;;5012975;28;20038;-69
2021/12/05 01:24:20;;;;;;;0.15;0.15;;;4.50;99.90;;;;;;5013225;28;20041;-69
2021/12/05 01:26:21;;;;;;;0.00;0.00;;;4.50;99.90;;;;;;5005980;28;20073;-69
2021/12/05 01:39:36;;;;;;;0.00;0.00;;;4.50;99.90;;;;;;5012957;28;20074;-69
2021/12/05 02:33:28;;;;;;;0.10;0.10;;;4.60;99.90;;;;;;4993781;28;20125;-69
2021/12/05 02:36:09;;;;;;;1.20;0.52;;;4.60;99.90;;;;;;4994361;28;20051;-69
2021/12/05 02:41:40;;;;;;;0.00;0.00;;;4.50;99.90;;;;;;4994507;28;20121;-69
2021/12/05 02:44:12;;;;;;;0.10;0.10;;;4.50;99.90;;;;;;4994137;28;20046;-69
2021/12/05 02:46:41;;;;;;;0.10;0.10;;;4.40;99.90;;;;;;5009198;28;20049;-69
2021/12/05 02:49:11;;;;;;;0.00;0.00;;;4.40;99.90;;;;;;4993640;28;20109;-69
2021/12/05 02:51:37;;;;;;;0.05;0.05;;;4.50;99.90;;;;;;4992615;28;20026;-69
2021/12/05 02:54:07;;;;;;;0.00;0.00;;;4.60;99.90;;;;;;4993092;28;20471;-70
2021/12/05 02:56:41;;;;;;;0.10;0.10;;;4.60;99.90;;;;;;4992993;28;20394;-70
2021/12/05 02:59:54;;;;;;;0.00;0.00;;;4.60;99.90;;;;;;4993131;28;20030;-72
2021/12/05 03:02:06;;;;;;;0.10;0.10;;;4.60;99.90;;;;;;4992974;28;20074;-69
2021/12/05 03:04:33;;;;;;;0.00;0.00;;;4.70;99.90;;;;;;4993930;28;20462;-69
2021/12/05 03:07:05;;;;;;;0.00;0.00;;;4.70;99.90;;;;;;4994102;28;20095;-69
2021/12/05 03:09:33;;;;;;;0.00;0.00;;;4.80;99.90;;;;;;4992805;28;20049;-69
2021/12/05 03:12:00;;;;;;;0.00;0.00;;;4.80;99.90;;;;;;4992705;28;20034;-69
2021/12/05 03:14:26;;;;;;;0.10;0.10;;;4.70;99.90;;;;;;4992599;28;20034;-70
2021/12/05 03:16:53;;;;;;;0.10;0.10;;;4.60;99.90;;;;;;4994067;28;20041;-70
2021/12/05 03:19:20;;;;;;;0.10;0.10;;;4.50;99.90;;;;;;4992769;28;20698;-69
2021/12/05 03:21:50;;;;;;;0.13;0.13;;;4.30;99.90;;;;;;4993933;28;20038;-70
2021/12/05 03:24:18;;;;;;;0.15;0.15;;;4.30;99.90;;;;;;4993413;28;20038;-69
2021/12/05 03:26:48;;;;;;;0.00;0.00;;;4.20;99.90;;;;;;4992592;28;20495;-69
2021/12/05 03:29:17;;;;;;;0.10;0.10;;;4.10;99.90;;;;;;4993520;28;20109;-69
2021/12/05 03:31:45;;;;;;;0.00;0.00;;;4.10;99.90;;;;;;4993837;28;20026;-70
2021/12/05 03:34:16;;;;;;;1.17;1.13;;;4.10;99.90;;;;;;4993324;28;20026;-69
2021/12/05 03:36:53;;;;;;;0.10;0.10;;;4.10;99.90;;;;;;4992545;28;20030;-69
2021/12/05 03:39:19;;;;;;;0.40;0.40;;;4.00;99.90;;;;;;4992223;28;20097;-70
2021/12/05 03:41:47;;;;;;;0.20;0.20;;;3.80;99.90;;;;;;4992400;28;20057;-69
2021/12/05 03:44:18;;;;;;;0.47;0.47;;;3.80;99.90;;;;;;4993479;28;20046;-69
2021/12/05 03:46:47;;;;;;;0.00;0.00;;;4.00;99.90;;;;;;4992495;28;20042;-69
2021/12/05 03:49:14;;;;;;;0.20;0.20;;;4.00;99.90;;;;;;4992298;28;20387;-69
2021/12/05 03:51:49;;;;;;;0.10;0.10;;;3.90;99.90;;;;;;4993065;28;20034;-69
2021/12/05 03:54:16;;;;;;;0.00;0.00;;;4.10;99.90;;;;;;4993150;28;20039;-69
2021/12/05 03:56:46;;;;;;;0.65;0.65;;;4.00;99.90;;;;;;4993002;28;20561;-69
2021/12/05 03:59:15;;;;;;;0.08;0.08;;;4.10;99.90;;;;;;4993369;28;20038;-69
2021/12/05 04:01:41;;;;;;;0.10;0.10;;;4.10;99.90;;;;;;4991814;28;20442;-69
2021/12/05 04:04:11;;;;;;;0.10;0.10;;;4.10;99.90;;;;;;4990921;28;20392;-69
2021/12/05 04:06:37;;;;;;;0.10;0.10;;;4.10;99.90;;;;;;4993291;28;20037;-70
2021/12/05 04:09:09;;;;;;;0.73;0.73;;;3.90;99.90;;;;;;4993089;28;20030;-69
2021/12/05 04:11:44;;;;;;;0.10;0.10;;;3.80;99.90;;;;;;4992850;28;20042;-69
2021/12/05 04:14:14;;;;;;;0.10;0.10;;;3.60;99.90;;;;;;4991881;28;20049;-69
2021/12/05 04:16:42;;;;;;;0.00;0.00;;;3.60;99.90;;;;;;4992762;28;20026;-69
2021/12/05 04:19:07;;;;;;;0.10;0.10;;;3.50;99.90;;;;;;4992795;28;20407;-69
2021/12/05 04:21:36;;;;;;;0.10;0.10;;;3.40;99.90;;;;;;4993039;28;20031;-69
2021/12/05 04:24:05;;;;;;;0.00;0.00;;;3.40;99.90;;;;;;4992789;28;20050;-70
2021/12/05 04:26:32;;;;;;;0.32;0.32;;;3.30;99.90;;;;;;4991749;28;20113;-69
2021/12/05 04:28:58;;;;;;;2.15;1.98;;;3.30;99.90;;;;;;4992894;28;20102;-69
2021/12/05 04:31:24;;;;;;;0.20;0.20;;;3.20;99.90;;;;;;4992715;28;20026;-70
2021/12/05 04:33:51;;;;;;;4.00;1.27;;;3.20;99.90;;;;;;4992745;28;20042;-69
2021/12/05 04:36:17;;;;;;;0.00;0.00;;;3.10;99.90;;;;;;4992967;28;20037;-69
2021/12/05 04:38:44;;;;;;;0.00;0.00;;;3.10;99.90;;;;;;4991229;28;20038;-69
2021/12/05 04:41:10;;;;;;;0.00;0.00;;;3.10;99.90;;;;;;4992681;28;20034;-69
2021/12/05 04:43:37;;;;;;;0.10;0.10;;;3.10;99.90;;;;;;4992538;28;20089;-69
2021/12/05 04:46:13;;;;;;;0.10;0.10;;;3.00;99.90;;;;;;4991212;28;20058;-69
2021/12/05 04:48:41;;;;;;;0.10;0.10;;;3.00;99.90;;;;;;4991499;28;20031;-69
2021/12/05 04:51:08;;;;;;;38.28;1.88;;;3.00;99.90;;;;;;4992648;28;20565;-68
2021/12/05 04:53:34;;;;;;;0.30;0.30;;;3.20;99.90;;;;;;4991489;28;20061;-68
2021/12/05 04:56:01;;;;;;;6.72;1.02;;;3.20;99.90;;;;;;4991542;28;20117;-69
2021/12/05 04:58:26;;;;;;;0.00;0.00;;;3.20;99.90;;;;;;4992430;28;20034;-68
2021/12/05 05:00:57;;;;;;;0.10;0.10;;;3.30;99.90;;;;;;4992488;28;20506;-68
2021/12/05 05:03:24;;;;;;;0.00;0.00;;;3.50;99.90;;;;;;4992700;28;20038;-68
2021/12/05 05:05:58;;;;;;;0.10;0.10;;;3.50;99.90;;;;;;5007511;28;20487;-68
2021/12/05 05:08:30;;;;;;;0.00;0.00;;;3.50;99.90;;;;;;4975892;28;20092;-68
2021/12/05 05:10:58;;;;;;;0.00;0.00;;;3.60;99.90;;;;;;4992549;28;20110;-69
2021/12/05 05:13:25;;;;;;;0.00;0.00;;;3.60;99.90;;;;;;4992316;28;20026;-68
2021/12/05 05:15:53;;;;;;;1.08;1.08;;;3.70;99.90;;;;;;4994717;28;20038;-68
2021/12/05 05:18:19;;;;;;;0.00;0.00;;;3.70;99.90;;;;;;4995966;28;20034;-68
2021/12/05 05:20:55;;;;;;;0.10;0.10;;;3.60;99.90;;;;;;5011028;28;20030;-68
2021/12/05 05:26:44;;;;;;;0.30;0.30;;;3.60;99.90;;;;;;4996000;28;20037;-68
2021/12/05 05:50:20;;;;;;;0.00;0.00;;;3.20;99.90;;;;;;4995406;28;20089;-69
2021/12/05 05:52:48;;;;;;;1.88;1.27;;;3.40;99.90;;;;;;4995457;28;20511;-69
2021/12/05 05:55:14;;;;;;;6.13;2.05;;;3.50;99.90;;;;;;4994165;28;20069;-69
2021/12/05 05:57:47;;;;;;;0.10;0.10;;;3.60;99.90;;;;;;4993956;28;20073;-69
2021/12/05 06:00:28;;;;;;;0.15;0.15;;;3.60;99.90;;;;;;4994104;28;20443;-69
2021/12/05 06:05:39;;;;;;;0.93;0.88;;;3.70;99.90;;;;;;4994929;28;20004;-68
2021/12/05 06:08:05;;;;;;;0.00;0.00;;;3.80;99.90;;;;;;4994264;28;20034;-68
2021/12/05 06:10:32;;;;;;;0.85;0.85;;;3.90;99.90;;;;;;4994616;28;20416;-69
2021/12/05 06:12:59;;;;;;;0.10;0.10;;;4.00;99.90;;;;;;4994082;28;20085;-68
2021/12/05 06:15:27;;;;;;;0.10;0.10;;;4.00;99.90;;;;;;4994833;28;20399;-69
2021/12/05 06:17:54;;;;;;;2.30;1.45;;;4.00;99.90;;;;;;4995136;28;20053;-69
2021/12/05 06:20:25;;;;;;;0.00;0.00;;;4.00;99.90;;;;;;4994845;28;20033;-69
2021/12/05 06:22:53;;;;;;;0.00;0.00;;;4.00;99.90;;;;;;4995215;28;20045;-66
2021/12/05 06:25:24;;;;;;;0.05;0.05;;;3.90;99.90;;;;;;4994549;28;20480;-67
2021/12/05 06:27:52;;;;;;;0.10;0.10;;;3.90;99.90;;;;;;4993467;28;20045;-65
2021/12/05 06:46:13;;;;;;;0.10;0.10;;;3.60;99.90;;;;;;4994221;28;20419;-66
2021/12/05 06:48:43;;;;;;;0.10;0.10;;;3.60;99.90;;;;;;5008942;28;20034;-66
2021/12/05 06:51:12;;;;;;;0.10;0.10;;;3.60;99.90;;;;;;5009023;28;20039;-69
2021/12/05 06:53:39;;;;;;;0.00;0.00;;;3.60;99.90;;;;;;5009144;28;20397;-66
2021/12/05 06:56:06;;;;;;;0.08;0.08;;;3.60;99.90;;;;;;4994472;28;20027;-66
2021/12/05 06:58:36;;;;;;;1.10;1.10;;;3.60;99.90;;;;;;4992566;28;20519;-64
2021/12/05 07:01:06;;;;;;;0.10;0.10;;;3.60;99.90;;;;;;5009275;28;20030;-65
2021/12/05 07:03:34;;;;;;;0.20;0.20;;;3.70;99.90;;;;;;4994448;28;20038;-65
2021/12/05 07:08:33;;;;;;;0.25;0.25;;;3.70;99.90;;;;;;5008691;28;20033;-63
2021/12/05 07:11:11;;;;;;;0.10;0.10;;;3.70;99.90;;;;;;4994037;28;20034;-65
2021/12/05 07:21:42;;;;;;;0.10;0.10;;;3.70;99.90;;;;;;4993741;28;20105;-66
2021/12/05 07:24:26;;;;;;;0.10;0.10;;;3.70;99.90;;;;;;5007842;28;20045;-73
2021/12/05 07:40:40;;;;;;;0.10;0.10;;;3.80;99.90;;;;;;4992900;28;20053;-69
2021/12/05 07:43:10;;;;;;;0.10;0.10;;;3.90;99.90;;;;;;4993644;28;20105;-64
2021/12/05 07:45:45;;;;;;;0.00;0.00;;;3.90;99.90;;;;;;4992997;28;20049;-64
2021/12/05 07:48:21;;;;;;;0.10;0.10;;;3.90;99.90;;;;;;4993319;28;20039;-69
2021/12/05 07:51:14;;;;;;;0.10;0.10;;;4.00;99.90;;;;;;4991026;28;20442;-70
2021/12/05 07:56:37;;;;;;;0.00;0.00;;;4.20;99.90;;;;;;4993299;28;20038;-70
2021/12/05 08:15:47;;;;;;;0.00;0.00;;;4.20;99.90;;;;;;5005395;28;20045;-70
2021/12/05 08:18:14;;;;;;;0.00;0.00;;;4.20;99.90;;;;;;4991566;28;20120;-70
2021/12/05 08:20:43;;;;;;;0.10;0.10;;;4.20;99.90;;;;;;4993000;28;20040;-70
2021/12/05 08:23:12;;;;;;;0.10;0.10;;;4.30;99.90;;;;;;4975634;28;20026;-67
2021/12/05 08:25:44;;;;;;;0.03;0.03;;;4.30;99.90;;;;;;4992855;28;20038;-67
2021/12/05 08:30:48;;;;;;;0.10;0.10;;;4.60;99.90;;;;;;5007113;28;20030;-69
2021/12/05 08:33:31;;;;;;;0.03;0.03;;;4.60;99.90;;;;;;4992804;28;20026;-69
2021/12/05 08:36:29;;;;;;;0.10;0.10;;;4.70;99.90;;;;;;4991137;28;20030;-69
2021/12/05 08:41:52;;;;;;;0.10;0.10;;;4.70;99.90;;;;;;4973064;28;20009;-70
2021/12/05 09:30:31;;;;;;;0.05;0.05;;;4.90;99.90;;;;;;5010714;28;20045;-65
2021/12/05 10:14:49;;;;;;;0.20;0.20;;;5.20;99.90;;;;;;5009654;28;20065;-64
2021/12/05 10:26:04;;;;;;;0.00;0.00;;;5.20;99.90;;;;;;5009697;28;20467;-66
2021/12/05 10:37:17;;;;;;;0.00;0.00;;;5.80;99.90;;;;;;5007343;28;20030;-68
2021/12/05 10:39:43;;;;;;;0.10;0.10;;;5.80;99.90;;;;;;5008210;28;20121;-68
2021/12/05 10:42:43;;;;;;;0.55;0.55;;;5.60;99.90;;;;;;4993998;28;20178;-69
2021/12/05 10:45:23;;;;;;;0.10;0.10;;;5.40;99.90;;;;;;4994346;28;20711;-69
2021/12/05 10:47:53;;;;;;;0.30;0.30;;;5.40;99.90;;;;;;4994185;28;20034;-68
2021/12/05 10:50:45;;;;;;;0.10;0.10;;;5.40;99.90;;;;;;5008798;28;20403;-69
2021/12/05 10:53:42;;;;;;;0.00;0.00;;;5.40;99.90;;;;;;4994505;28;20053;-68
2021/12/05 10:56:28;;;;;;;0.00;0.00;;;5.40;99.90;;;;;;4994023;28;20069;-69
2021/12/05 10:59:08;;;;;;;0.10;0.10;;;5.50;99.90;;;;;;4993985;28;20041;-68
2021/12/05 11:01:58;;;;;;;0.10;0.10;;;5.50;99.90;;;;;;4993839;28;20356;-68
2021/12/05 11:04:33;;;;;;;0.00;0.00;;;5.50;99.90;;;;;;4992481;28;20396;-68
2021/12/05 11:07:12;;;;;;;0.00;0.00;;;5.60;99.90;;;;;;4994062;28;20062;-68
2021/12/05 11:09:43;;;;;;;0.00;0.00;;;5.60;99.90;;;;;;4994287;28;20057;-68
2021/12/05 11:12:27;;;;;;;0.10;0.10;;;5.80;99.90;;;;;;4993446;28;20050;-68
2021/12/05 11:14:56;;;;;;;0.03;0.03;;;5.90;99.90;;;;;;5008337;28;20045;-68
2021/12/05 11:17:29;;;;;;;0.08;0.08;;;6.20;99.90;;;;;;4993547;28;20180;-68
2021/12/05 11:20:09;;;;;;;0.10;0.10;;;6.70;99.90;;;;;;5008019;28;20038;-68
2021/12/05 11:22:46;;;;;;;0.00;0.00;;;7.60;99.90;;;;;;4993898;28;20026;-69
2021/12/05 11:25:27;;;;;;;0.00;0.00;;;8.20;99.90;;;;;;4993556;28;20085;-68
2021/12/05 11:28:04;;;;;;;0.00;0.00;;;8.00;99.90;;;;;;4992217;28;20039;-68
2021/12/05 11:30:36;;;;;;;0.10;0.10;;;8.10;99.90;;;;;;4993834;28;20034;-69
2021/12/05 11:33:19;;;;;;;1.75;1.00;;;7.90;99.90;;;;;;4993280;28;20442;-69
2021/12/05 11:35:50;;;;;;;0.10;0.10;;;8.30;99.90;;;;;;4993574;28;20034;-69
2021/12/05 11:38:24;;;;;;;0.00;0.00;;;8.40;99.90;;;;;;4993166;28;20031;-69
2021/12/05 11:41:05;;;;;;;0.00;0.00;;;8.50;99.90;;;;;;5008236;28;20126;-69
2021/12/05 11:43:51;;;;;;;0.00;0.00;;;9.00;99.90;;;;;;5008414;28;20057;-69
2021/12/05 11:46:36;;;;;;;0.00;0.00;;;8.40;99.90;;;;;;4993135;28;20137;-69
2021/12/05 11:49:10;;;;;;;0.43;0.43;;;8.50;99.90;;;;;;4993416;28;20054;-69
2021/12/05 11:51:55;;;;;;;0.22;0.22;;;8.80;99.90;;;;;;5007783;28;20088;-69
2021/12/05 11:54:24;;;;;;;0.00;0.00;;;8.30;99.90;;;;;;4993356;28;20070;-69
2021/12/05 11:56:52;;;;;;;0.00;0.00;;;8.80;99.90;;;;;;4992931;28;20026;-69
2021/12/05 11:59:42;;;;;;;0.10;0.10;;;9.30;99.90;;;;;;4993410;28;20038;-68
2021/12/05 12:02:14;;;;;;;0.15;0.15;;;10.00;99.90;;;;;;4993039;28;20034;-69
2021/12/05 12:04:58;;;;;;;0.00;0.00;;;10.10;99.90;;;;;;4992913;28;20503;-69
2021/12/05 12:07:42;;;;;;;0.20;0.20;;;8.90;99.90;;;;;;4993196;28;20407;-71
2021/12/05 12:10:34;;;;;;;2.00;0.88;;;10.00;99.90;;;;;;5007949;28;20487;-61
2021/12/05 12:13:11;;;;;;;0.00;0.00;;;10.00;99.90;;;;;;5007966;28;20037;-69
2021/12/05 12:15:41;;;;;;;0.00;0.00;;;9.70;99.90;;;;;;4975225;28;20038;-69
2021/12/05 12:18:18;;;;;;;0.00;0.00;;;9.40;99.90;;;;;;4993194;28;20073;-68
2021/12/05 12:20:46;;;;;;;0.00;0.00;;;9.10;99.90;;;;;;5006962;28;20554;-68
2021/12/05 12:23:15;;;;;;;0.25;0.25;;;9.00;99.90;;;;;;5007852;28;20045;-66
2021/12/05 12:25:45;;;;;;;0.00;0.00;;;9.50;99.90;;;;;;4991941;28;20169;-68
2021/12/05 12:28:11;;;;;;;0.05;0.05;;;9.70;99.90;;;;;;5008062;28;20045;-67
2021/12/05 12:30:42;;;;;;;0.00;0.00;;;9.50;99.90;;;;;;5007723;28;20030;-67
2021/12/05 12:33:22;;;;;;;0.00;0.00;;;8.80;99.90;;;;;;4992931;28;20113;-67
2021/12/05 12:35:50;;;;;;;0.00;0.00;;;8.00;99.90;;;;;;5007182;28;20034;-67
2021/12/05 12:38:28;;;;;;;0.00;0.00;;;8.30;99.90;;;;;;4992414;28;20037;-67
2021/12/05 12:41:03;;;;;;;0.00;0.00;;;8.40;99.90;;;;;;4991504;28;20184;-67
2021/12/05 12:44:13;;;;;;;0.20;0.20;;;8.50;99.90;;;;;;4992735;28;20129;-69
2021/12/05 12:46:49;;;;;;;0.13;0.13;;;8.80;99.90;;;;;;4992471;28;20076;-68
2021/12/05 12:49:14;;;;;;;0.00;0.00;;;9.20;99.90;;;;;;4992595;28;20041;-69
2021/12/05 12:52:12;;;;;;;0.00;0.00;;;9.90;99.90;;;;;;5007489;28;20042;-69
2021/12/05 12:54:57;;;;;;;0.00;0.00;;;9.50;99.90;;;;;;4974939;28;20031;-60
2021/12/05 12:57:32;;;;;;;0.00;0.00;;;9.50;99.90;;;;;;4992175;28;20045;-67
2021/12/05 13:00:16;;;;;;;0.95;0.90;;;9.90;99.90;;;;;;5005660;28;20435;-66
2021/12/05 13:07:15;;;;;;;0.00;0.00;;;9.40;99.90;;;;;;5007202;28;20034;-66
2021/12/05 13:11:21;;;;;;;0.15;0.15;;;8.40;99.90;;;;;;5004787;28;20033;-66
2021/12/05 13:14:03;;;;;;;0.00;0.00;;;7.50;99.90;;;;;;4990869;28;20038;-66
2021/12/05 13:16:35;;;;;;;0.30;0.30;;;7.50;99.90;;;;;;4992191;28;20047;-66
2021/12/05 13:19:14;;;;;;;0.00;0.00;;;7.50;99.90;;;;;;4992085;28;20035;-66
2021/12/05 13:21:45;;;;;;;0.20;0.20;;;7.70;99.90;;;;;;5006820;28;20030;-66
2021/12/05 13:24:15;;;;;;;0.00;0.00;;;8.00;99.90;;;;;;4992416;28;20031;-66
2021/12/05 13:26:42;;;;;;;0.00;0.00;;;9.20;99.90;;;;;;4992094;28;20049;-67
2021/12/05 13:29:22;;;;;;;0.00;0.00;;;10.00;99.90;;;;;;4992483;28;20022;-67
2021/12/05 13:31:56;;;;;;;0.00;0.00;;;10.90;99.90;;;;;;5006953;28;20034;-66
2021/12/05 13:34:40;;;;;;;0.00;0.00;;;9.10;99.90;;;;;;5006816;28;20436;-66
2021/12/05 13:37:06;;;;;;;0.00;0.00;;;9.30;99.90;;;;;;4994977;28;20070;-66
2021/12/05 13:40:11;;;;;;;0.00;0.00;;;8.90;99.90;;;;;;4995642;28;20062;-66
2021/12/05 13:42:37;;;;;;;0.15;0.15;;;9.30;99.90;;;;;;4995794;28;20088;-67
2021/12/05 13:45:10;;;;;;;0.10;0.10;;;9.00;99.90;;;;;;4995204;28;20595;-66
2021/12/05 13:47:51;;;;;;;0.00;0.00;;;9.00;99.90;;;;;;4994247;28;20034;-65
2021/12/05 13:50:27;;;;;;;0.00;0.00;;;9.10;99.90;;;;;;4995147;28;20042;-66
2021/12/05 13:53:01;;;;;;;0.00;0.00;;;8.70;99.90;;;;;;4995149;28;20126;-66
2021/12/05 13:55:45;;;;;;;0.00;0.00;;;8.80;99.90;;;;;;4994273;28;20042;-66
2021/12/05 13:58:25;;;;;;;0.00;0.00;;;9.00;99.90;;;;;;4994247;28;20045;-66
2021/12/05 14:01:00;;;;;;;0.00;0.00;;;8.60;99.90;;;;;;4995041;28;20487;-66
2021/12/05 14:04:05;;;;;;;0.00;0.00;;;8.90;99.90;;;;;;5009109;28;20066;-66
2021/12/05 14:06:59;;;;;;;0.00;0.00;;;9.10;99.90;;;;;;4995076;28;20034;-65
2021/12/05 14:09:32;;;;;;;0.25;0.22;;;9.00;99.90;;;;;;4995570;28;20093;-65
2021/12/05 14:12:11;;;;;;;0.10;0.10;;;9.20;99.90;;;;;;4995095;28;20030;-65
2021/12/05 14:14:49;;;;;;;0.00;0.00;;;9.50;99.90;;;;;;5009830;28;20395;-64
2021/12/05 14:17:23;;;;;;;0.00;0.00;;;9.20;99.90;;;;;;4995176;28;20023;-64
2021/12/05 14:20:13;;;;;;;0.00;0.00;;;9.60;99.90;;;;;;4994806;28;20053;-64
2021/12/05 14:22:42;;;;;;;0.10;0.10;;;9.70;99.90;;;;;;4994820;28;20080;-66
2021/12/05 14:25:12;;;;;;;0.20;0.20;;;9.60;99.90;;;;;;5009764;28;20065;-67
2021/12/05 14:27:46;;;;;;;0.00;0.00;;;9.60;99.90;;;;;;4994796;28;20117;-66
2021/12/05 14:30:21;;;;;;;0.00;0.00;;;8.90;99.90;;;;;;4994601;28;20108;-66
2021/12/05 14:32:50;;;;;;;0.00;0.00;;;8.70;99.90;;;;;;4994595;28;20034;-66
2021/12/05 14:35:32;;;;;;;0.00;0.00;;;8.50;99.90;;;;;;4993125;28;20050;-66
2021/12/05 14:37:57;;;;;;;;;;;7.90;99.90;;;;;;4994476;28;20034;-66
2021/12/05 14:40:32;;;;;;;0.00;0.00;;;7.90;99.90;;;;;;4994672;28;20362;-65
2021/12/05 14:43:04;;;;;;;0.90;0.73;;;7.80;99.90;;;;;;4994155;28;20030;-65
2021/12/05 14:45:38;;;;;;;0.00;0.00;;;7.70;99.90;;;;;;4994293;28;20053;-69
2021/12/05 14:48:11;;;;;;;0.08;0.08;;;7.10;99.90;;;;;;4993374;28;20034;-72
2021/12/05 14:50:40;;;;;;;0.00;0.00;;;6.70;99.90;;;;;;4993144;28;20026;-68
2021/12/05 14:53:10;;;;;;;0.10;0.10;;;6.60;99.90;;;;;;4992885;28;20058;-69
2021/12/05 14:55:37;;;;;;;0.08;0.08;;;6.50;99.90;;;;;;4977159;28;20033;-70
2021/12/05 14:58:14;;;;;;;0.00;0.00;;;6.60;99.90;;;;;;4992958;28;20038;-70
2021/12/05 15:00:46;;;;;;;0.05;0.05;;;6.80;99.90;;;;;;4993687;28;20023;-69
2021/12/05 15:03:18;;;;;;;0.10;0.10;;;7.00;99.90;;;;;;4992678;28;20038;-69
2021/12/05 15:05:46;;;;;;;;;;;6.80;99.90;;;;;;4994249;28;20116;-69
2021/12/05 15:08:16;;;;;;;0.32;0.32;;;6.90;99.90;;;;;;4993847;28;20071;-69
2021/12/05 15:10:46;;;;;;;0.22;0.22;;;6.90;99.90;;;;;;4994306;28;20042;-69
2021/12/05 15:13:12;;;;;;;0.32;0.32;;;6.60;99.90;;;;;;4994280;28;20026;-68
2021/12/05 15:15:39;;;;;;;0.00;0.00;;;6.60;99.90;;;;;;5008874;28;20030;-66
2021/12/05 15:18:12;;;;;;;0.00;0.00;;;6.30;99.90;;;;;;5008567;28;20049;-65
2021/12/05 15:20:38;;;;;;;0.00;0.00;;;6.10;99.90;;;;;;5007790;28;20058;-67
2021/12/05 15:23:09;;;;;;;0.03;0.03;;;5.80;99.90;;;;;;4993713;28;20030;-67
2021/12/05 15:25:38;;;;;;;;;;;5.60;99.90;;;;;;4993786;28;20042;-66
2021/12/05 15:28:05;;;;;;;0.08;0.08;;;5.50;99.90;;;;;;4993047;28;19913;-67
2021/12/05 15:30:42;;;;;;;0.00;0.00;;;5.40;99.90;;;;;;4993551;28;20491;-65
2021/12/05 15:33:15;;;;;;;0.82;0.80;;;5.40;99.90;;;;;;5008051;28;20360;-66
2021/12/05 15:35:43;;;;;;;0.10;0.10;;;5.50;99.90;;;;;;4992197;28;20475;-67
2021/12/05 15:38:21;;;;;;;0.10;0.10;;;5.50;99.90;;;;;;5008156;28;20030;-67
2021/12/05 15:40:49;;;;;;;0.08;0.08;;;5.60;99.90;;;;;;4992267;28;20022;-68
2021/12/05 15:43:20;;;;;;;0.00;0.00;;;5.70;99.90;;;;;;5008192;28;20070;-75
2021/12/05 15:45:51;;;;;;;0.00;0.00;;;5.70;99.90;;;;;;4991847;28;20051;-76
2021/12/05 15:48:33;;;;;;;0.00;0.00;;;5.70;99.90;;;;;;4993171;28;20030;-70
2021/12/05 15:51:02;;;;;;;0.10;0.10;;;5.60;99.90;;;;;;4993316;28;20546;-59
2021/12/05 15:53:32;;;;;;;0.10;0.10;;;5.50;99.90;;;;;;4993269;28;20483;-58
2021/12/05 15:56:03;;;;;;;0.10;0.10;;;5.50;99.90;;;;;;4993463;28;20041;-69
2021/12/05 15:58:42;;;;;;;0.10;0.10;;;5.50;99.90;;;;;;5007810;28;20034;-69
2021/12/05 16:01:13;;;;;;;0.10;0.10;;;5.50;99.90;;;;;;5007643;28;20080;-65
2021/12/05 16:03:46;;;;;;;0.00;0.00;;;5.60;99.90;;;;;;4993189;28;20026;-65
2021/12/05 16:06:15;;;;;;;0.10;0.10;;;5.50;99.90;;;;;;4992991;28;20038;-71
2021/12/05 16:08:43;;;;;;;0.00;0.00;;;5.40;99.90;;;;;;4992928;28;20046;-69
2021/12/05 16:11:16;;;;;;;0.00;0.00;;;5.40;99.90;;;;;;5007872;28;20126;-66
2021/12/05 16:13:45;;;;;;;1.85;1.55;;;5.30;99.90;;;;;;4992773;28;20034;-68
2021/12/05 16:16:24;;;;;;;0.10;0.10;;;5.20;99.90;;;;;;4992749;28;20041;-69
2021/12/05 16:18:56;;;;;;;0.10;0.10;;;5.20;99.90;;;;;;4992618;28;20042;-65
2021/12/05 16:21:29;;;;;;;0.10;0.10;;;5.20;99.90;;;;;;4992722;28;20537;-67
2021/12/05 16:24:06;;;;;;;0.13;0.13;;;5.20;99.90;;;;;;4992499;28;20041;-65
2021/12/05 16:26:33;;;;;;;0.10;0.10;;;5.20;99.90;;;;;;4992977;28;20034;-66
2021/12/05 16:29:06;;;;;;;0.17;0.17;;;5.20;99.90;;;;;;4992416;28;20034;-66
2021/12/05 16:31:40;;;;;;;0.52;0.52;;;5.10;99.90;;;;;;5007659;28;20471;-66
2021/12/05 16:34:20;;;;;;;0.40;0.40;;;5.10;99.90;;;;;;5007271;28;20030;-64
2021/12/05 16:37:12;;;;;;;0.20;0.20;;;5.10;99.90;;;;;;5007139;28;20030;-66
2021/12/05 16:39:48;;;;;;;1.35;1.27;;;5.10;99.90;;;;;;4974427;28;20047;-64
2021/12/05 16:42:22;;;;;;;0.10;0.10;;;5.10;99.90;;;;;;4973197;28;20154;-65
2021/12/05 16:44:58;;;;;;;0.20;0.20;;;5.10;99.90;;;;;;4971968;28;20050;-65
2021/12/05 16:47:29;;;;;;;0.10;0.10;;;5.10;99.90;;;;;;4973267;28;20071;-64
2021/12/05 16:49:58;;;;;;;;;;;5.10;99.90;;;;;;4973574;28;20174;-65
2021/12/05 16:52:36;;;;;;;0.00;0.00;;;5.10;99.90;;;;;;4973043;28;20295;-64
2021/12/05 16:55:20;;;;;;;0.00;0.00;;;5.10;99.90;;;;;;4987983;28;20404;-65
2021/12/05 16:57:57;;;;;;;0.05;0.05;;;5.00;99.90;;;;;;4940416;28;20069;-64
2021/12/05 17:00:29;;;;;;;0.15;0.15;;;5.00;99.90;;;;;;4991964;28;20113;-63
2021/12/05 17:03:01;;;;;;;0.10;0.10;;;5.00;99.90;;;;;;4990647;28;20550;-66
2021/12/05 17:05:34;;;;;;;0.10;0.10;;;5.10;99.90;;;;;;4990613;28;20588;-68
2021/12/05 17:08:13;;;;;;;0.00;0.00;;;5.10;99.90;;;;;;4992250;28;20037;-67
2021/12/05 17:11:09;;;;;;;0.10;0.10;;;5.00;99.90;;;;;;4992852;28;20065;-67
2021/12/05 17:13:46;;;;;;;0.10;0.10;;;5.00;99.90;;;;;;4995101;28;20042;-68
2021/12/05 17:16:28;;;;;;;0.10;0.10;;;5.10;99.90;;;;;;4998003;28;20026;-69
2021/12/05 17:18:56;;;;;;;0.00;0.00;;;5.10;99.90;;;;;;4996443;28;20060;-72
2021/12/05 17:21:30;;;;;;;0.95;0.95;;;5.10;99.90;;;;;;5003037;28;20418;-65
2021/12/05 17:24:09;;;;;;;0.10;0.10;;;5.10;99.90;;;;;;5004419;28;20058;-69
2021/12/05 17:26:44;;;;;;;0.10;0.10;;;5.10;99.90;;;;;;4999178;28;20509;-68
2021/12/05 17:29:34;;;;;;;0.28;0.28;;;5.00;99.90;;;;;;5030211;28;20044;-66
2021/12/05 17:32:14;;;;;;;0.17;0.17;;;5.00;99.90;;;;;;5015520;28;20026;-70
2021/12/05 17:34:43;;;;;;;0.13;0.13;;;5.00;99.90;;;;;;5030229;28;20068;-68
2021/12/05 17:37:18;;;;;;;0.30;0.30;;;5.00;99.90;;;;;;5015010;28;20447;-67
2021/12/05 17:39:47;;;;;;;0.05;0.05;;;5.00;99.90;;;;;;5015222;28;20125;-73
2021/12/05 17:42:21;;;;;;;0.00;0.00;;;4.90;99.90;;;;;;5015107;28;20044;-67
2021/12/05 17:44:55;;;;;;;1.58;1.48;;;4.90;99.90;;;;;;5014980;28;20123;-67
2021/12/05 17:47:21;;;;;;;0.00;0.00;;;4.90;99.90;;;;;;5029899;28;20030;-68
2021/12/05 17:49:52;;;;;;;0.00;0.00;;;4.90;99.90;;;;;;5014769;28;20033;-68
2021/12/05 17:52:21;;;;;;;1.77;1.67;;;4.90;99.90;;;;;;5015385;28;20032;-70
2021/12/05 17:57:20;;;;;;;0.10;0.10;;;4.90;99.90;;;;;;5014735;28;20033;-66
2021/12/05 18:02:47;;;;;;;0.73;0.73;;;4.90;99.90;;;;;;4976025;28;20122;-65
2021/12/05 18:05:35;;;;;;;0.10;0.10;;;4.90;99.90;;;;;;4975931;28;20082;-66
2021/12/05 18:08:15;;;;;;;0.22;0.22;;;4.90;99.90;;;;;;4975867;28;20035;-66
2021/12/05 18:10:50;;;;;;;0.73;0.73;;;5.00;99.90;;;;;;4975655;28;20113;-65
2021/12/05 18:13:21;;;;;;;0.30;0.30;;;4.90;99.90;;;;;;4975517;28;20042;-67
2021/12/05 18:15:57;;;;;;;1.02;1.02;;;4.90;99.90;;;;;;4975745;28;20074;-66
2021/12/05 18:18:27;;;;;;;1.52;1.42;;;4.90;99.90;;;;;;4974382;28;20459;-65
2021/12/05 18:20:54;;;;;;;0.57;0.57;;;4.80;99.90;;;;;;4974416;28;20043;-65
2021/12/05 18:23:20;;;;;;;0.00;0.00;;;4.90;99.90;;;;;;4976948;28;20037;-65
2021/12/05 18:25:47;;;;;;;0.10;0.10;;;4.80;99.90;;;;;;4993235;28;20038;-66
2021/12/05 18:28:13;;;;;;;0.10;0.10;;;4.80;99.90;;;;;;4993253;28;20038;-66
2021/12/05 18:30:40;;;;;;;0.10;0.10;;;4.80;99.90;;;;;;4993947;28;20031;-66
2021/12/05 18:33:09;;;;;;;0.10;0.10;;;4.90;99.90;;;;;;4994369;28;20037;-65
2021/12/05 18:35:37;;;;;;;0.20;0.20;;;4.80;99.90;;;;;;4993546;28;20038;-66
2021/12/05 18:38:14;;;;;;;0.75;0.75;;;4.80;99.90;;;;;;4994294;28;20409;-65
2021/12/05 18:40:46;;;;;;;0.15;0.15;;;4.80;99.90;;;;;;4993229;28;20458;-66
2021/12/05 18:43:13;;;;;;;0.13;0.13;;;4.80;99.90;;;;;;4994222;28;20034;-66
2021/12/05 18:45:42;;;;;;;0.57;0.57;;;4.80;99.90;;;;;;4993156;28;20050;-65
2021/12/05 18:48:09;;;;;;;0.28;0.28;;;4.80;99.90;;;;;;4994156;28;20372;-64
2021/12/05 18:50:37;;;;;;;0.52;0.52;;;4.70;99.90;;;;;;4994640;28;20026;-66
2021/12/05 18:53:04;;;;;;;0.15;0.15;;;4.70;99.90;;;;;;4993963;28;20034;-66
2021/12/05 18:55:32;;;;;;;0.65;0.40;;;4.70;99.90;;;;;;4993302;28;20371;-66
2021/12/05 18:58:02;;;;;;;0.10;0.10;;;4.70;99.90;;;;;;4994260;28;20038;-66
2021/12/05 19:00:38;;;;;;;0.00;0.00;;;4.70;99.90;;;;;;4994073;28;20065;-65